Time;durP1;ratioP1;P1;durP2;ratioP2;P2;SDS_P1;SDS_P2;PMS_P1;PMS_P2;Temp;Humidity;BMP_temperature;BMP_pressure;BME280_temperature;BME280_humidity;BME280_pressure;Samples;Min_cycle;Max_cycle;Signal;HPM_P1;HPM_P2
2021/07/24 00:02:23;;;;;;;17.17;15.43;;;22.50;64.70;;;;;;5059744;28;20239;-83
2021/07/24 00:04:48;;;;;;;15.65;14.23;;;22.40;65.60;;;;;;5050972;28;20231;-84
2021/07/24 00:07:14;;;;;;;15.65;14.18;;;22.50;65.00;;;;;;5041369;28;20211;-83
2021/07/24 00:09:40;;;;;;;16.17;14.68;;;22.50;65.10;;;;;;5059500;28;20180;-84
2021/07/24 00:12:06;;;;;;;22.27;15.85;;;22.50;64.80;;;;;;5051974;28;20188;-84
2021/07/24 00:14:32;;;;;;;16.50;15.00;;;22.60;64.50;;;;;;5039194;28;20604;-83
2021/07/24 00:16:57;;;;;;;15.70;13.93;;;22.80;64.20;;;;;;5039824;28;20276;-85
2021/07/24 00:19:23;;;;;;;15.70;14.35;;;22.70;64.20;;;;;;5038278;28;20201;-83
2021/07/24 00:21:49;;;;;;;16.70;15.20;;;22.70;64.40;;;;;;5042959;28;20200;-84
2021/07/24 00:24:14;;;;;;;16.58;15.02;;;22.60;65.00;;;;;;5052977;28;20219;-83
2021/07/24 00:26:40;;;;;;;16.40;15.00;;;22.60;64.80;;;;;;5045304;28;20227;-83
2021/07/24 00:29:06;;;;;;;16.65;15.05;;;22.50;65.40;;;;;;5043719;28;20280;-83
2021/07/24 00:31:33;;;;;;;16.08;14.48;;;22.50;65.50;;;;;;5053795;28;20189;-83
2021/07/24 00:33:59;;;;;;;16.80;15.30;;;22.60;65.00;;;;;;5023872;28;20184;-84
2021/07/24 00:36:25;;;;;;;17.05;15.48;;;22.50;65.30;;;;;;5038969;28;20227;-83
2021/07/24 00:38:50;;;;;;;16.08;14.48;;;22.40;66.20;;;;;;5038395;28;20196;-83
2021/07/24 00:41:46;;;;;;;16.42;14.52;;;22.30;66.70;;;;;;5039162;28;20219;-83
2021/07/24 00:44:15;;;;;;;16.33;14.88;;;22.20;66.60;;;;;;5053124;28;20193;-83
2021/07/24 00:46:43;;;;;;;16.63;15.05;;;22.10;67.20;;;;;;5058349;28;20260;-84
2021/07/24 00:49:11;;;;;;;15.57;14.18;;;22.30;66.80;;;;;;5059069;28;20187;-84
2021/07/24 00:51:42;;;;;;;15.82;14.43;;;22.30;66.50;;;;;;5040852;28;20202;-84
2021/07/24 00:54:08;;;;;;;16.38;14.98;;;22.30;66.50;;;;;;5066449;28;20171;-83
2021/07/24 00:56:36;;;;;;;16.33;14.82;;;22.40;65.90;;;;;;5055709;28;20238;-83
2021/07/24 00:59:03;;;;;;;17.13;15.32;;;22.30;66.20;;;;;;5054500;28;20255;-84
2021/07/24 01:01:28;;;;;;;14.98;13.68;;;22.30;66.30;;;;;;5052434;28;20198;-83
2021/07/24 01:03:54;;;;;;;21.02;15.55;;;22.30;66.30;;;;;;5058861;28;20231;-83
2021/07/24 01:06:20;;;;;;;16.15;13.43;;;22.20;66.50;;;;;;5020447;28;20208;-83
2021/07/24 01:08:48;;;;;;;15.63;14.15;;;22.20;66.70;;;;;;5038933;28;20189;-83
2021/07/24 01:11:15;;;;;;;15.43;13.98;;;22.20;66.40;;;;;;5038672;28;20325;-84
2021/07/24 01:13:41;;;;;;;16.20;14.68;;;22.20;66.40;;;;;;5039027;28;20644;-83
2021/07/24 01:16:09;;;;;;;16.40;14.70;;;22.20;66.60;;;;;;5038299;28;20300;-83
2021/07/24 01:18:35;;;;;;;14.82;13.43;;;22.20;66.50;;;;;;5035952;28;20731;-84
2021/07/24 01:21:05;;;;;;;15.32;13.88;;;22.20;67.00;;;;;;5046770;28;20218;-83
2021/07/24 01:23:31;;;;;;;16.45;14.85;;;22.10;67.20;;;;;;5039399;28;20300;-83
2021/07/24 01:25:57;;;;;;;16.33;14.23;;;22.20;66.80;;;;;;5028651;28;20269;-83
2021/07/24 01:28:29;;;;;;;14.95;13.55;;;22.30;66.80;;;;;;5056549;28;20462;-84
2021/07/24 01:30:55;;;;;;;15.60;14.15;;;22.20;67.10;;;;;;5047062;28;20600;-84
2021/07/24 01:33:21;;;;;;;15.52;14.05;;;22.10;67.80;;;;;;5058573;28;20188;-83
2021/07/24 01:35:47;;;;;;;15.48;13.98;;;22.30;67.30;;;;;;5047339;28;20186;-83
2021/07/24 01:38:18;;;;;;;14.85;13.65;;;22.40;66.60;;;;;;5056845;28;20239;-83
2021/07/24 01:40:44;;;;;;;15.40;13.82;;;22.50;67.60;;;;;;5054003;28;20192;-83
2021/07/24 01:43:10;;;;;;;15.32;13.93;;;22.70;67.40;;;;;;5049603;28;20185;-83
2021/07/24 01:45:37;;;;;;;14.68;13.32;;;22.60;67.50;;;;;;5031958;28;20231;-83
2021/07/24 01:48:08;;;;;;;14.85;13.60;;;22.70;66.80;;;;;;5048769;28;20201;-83
2021/07/24 01:53:20;;;;;;;14.50;13.23;;;22.80;66.50;;;;;;5061197;28;20223;-83
2021/07/24 01:56:07;;;;;;;14.60;13.27;;;22.80;67.20;;;;;;5044842;28;20189;-83
2021/07/24 01:58:35;;;;;;;15.55;14.27;;;23.00;65.90;;;;;;5039610;28;20195;-83
2021/07/24 02:01:06;;;;;;;14.98;13.48;;;22.90;65.70;;;;;;5048845;28;20256;-83
2021/07/24 02:03:44;;;;;;;15.23;13.80;;;23.00;65.60;;;;;;5038387;28;20170;-84
2021/07/24 02:06:12;;;;;;;14.55;13.15;;;23.00;65.20;;;;;;5060047;28;20232;-83
2021/07/24 02:08:41;;;;;;;14.95;13.45;;;23.00;65.20;;;;;;5061017;28;20185;-83
2021/07/24 02:11:07;;;;;;;16.33;14.63;;;23.10;64.90;;;;;;5062082;28;20172;-83
2021/07/24 02:13:32;;;;;;;14.43;13.23;;;23.10;64.00;;;;;;5060841;28;20191;-83
2021/07/24 02:15:58;;;;;;;15.07;13.57;;;23.00;64.60;;;;;;5061113;28;20188;-84
2021/07/24 02:18:24;;;;;;;14.18;13.02;;;22.80;64.80;;;;;;5061415;28;20188;-83
2021/07/24 02:20:52;;;;;;;15.13;13.80;;;22.80;65.30;;;;;;5043739;28;20185;-83
2021/07/24 02:23:19;;;;;;;14.90;13.40;;;22.70;65.90;;;;;;5046099;28;20177;-86
2021/07/24 02:25:45;;;;;;;14.95;13.60;;;22.50;66.70;;;;;;5061103;28;20292;-83
2021/07/24 02:28:11;;;;;;;14.88;13.23;;;22.40;66.90;;;;;;5061361;28;20209;-83
2021/07/24 02:30:37;;;;;;;13.77;12.68;;;22.30;67.40;;;;;;5049188;28;20208;-83
2021/07/24 02:33:03;;;;;;;14.55;13.27;;;22.20;67.30;;;;;;5060826;28;20185;-83
2021/07/24 02:35:29;;;;;;;15.48;13.88;;;22.40;66.90;;;;;;5030746;28;20192;-83
2021/07/24 02:37:55;;;;;;;15.95;14.55;;;22.50;66.50;;;;;;5043481;28;20227;-84
2021/07/24 02:40:24;;;;;;;15.20;13.75;;;22.50;67.30;;;;;;5035446;28;20653;-84
2021/07/24 02:42:50;;;;;;;15.30;14.00;;;22.40;66.80;;;;;;5052836;28;20189;-84
2021/07/24 02:45:16;;;;;;;18.85;13.57;;;22.30;67.70;;;;;;5062566;28;20267;-85
2021/07/24 02:47:42;;;;;;;14.38;13.18;;;22.30;67.90;;;;;;5044921;28;20226;-85
2021/07/24 02:50:08;;;;;;;14.18;13.02;;;22.30;68.10;;;;;;5056632;28;20174;-85
2021/07/24 02:52:34;;;;;;;14.77;13.52;;;22.30;68.70;;;;;;5060036;28;20173;-84
2021/07/24 02:55:00;;;;;;;14.52;13.02;;;22.30;68.40;;;;;;5060600;28;20208;-83
2021/07/24 02:57:25;;;;;;;14.88;13.43;;;22.50;67.80;;;;;;5060692;28;20202;-85
2021/07/24 02:59:51;;;;;;;15.60;14.13;;;22.60;67.10;;;;;;5060106;28;20181;-85
2021/07/24 03:02:17;;;;;;;14.05;12.65;;;22.70;66.70;;;;;;5039582;28;20197;-84
2021/07/24 03:04:44;;;;;;;14.38;13.18;;;22.50;67.30;;;;;;5039681;28;20676;-84
2021/07/24 03:07:09;;;;;;;13.73;12.35;;;22.70;66.90;;;;;;5039351;28;20212;-84
2021/07/24 03:09:35;;;;;;;14.85;13.52;;;22.50;67.70;;;;;;5049884;28;20180;-85
2021/07/24 03:12:01;;;;;;;14.57;13.13;;;22.30;68.70;;;;;;5060492;28;20179;-85
2021/07/24 03:14:27;;;;;;;13.88;12.68;;;22.30;69.10;;;;;;5059969;28;20185;-85
2021/07/24 03:16:52;;;;;;;14.57;13.07;;;22.40;68.10;;;;;;5060000;28;20271;-84
2021/07/24 03:19:18;;;;;;;15.70;14.23;;;22.50;67.10;;;;;;5060922;28;20177;-84
2021/07/24 03:21:44;;;;;;;15.32;13.15;;;22.60;66.50;;;;;;5038828;28;20192;-85
2021/07/24 03:24:10;;;;;;;14.98;13.65;;;22.50;66.80;;;;;;5047044;28;20212;-84
2021/07/24 03:26:35;;;;;;;14.98;13.68;;;22.60;67.10;;;;;;5040282;28;20212;-84
2021/07/24 03:29:01;;;;;;;13.32;12.23;;;22.50;67.40;;;;;;5043461;28;20214;-85
2021/07/24 03:31:27;;;;;;;14.88;13.43;;;22.50;67.50;;;;;;5028237;28;20200;-85
2021/07/24 03:33:53;;;;;;;15.80;14.40;;;22.60;67.50;;;;;;5039051;28;20188;-84
2021/07/24 03:36:18;;;;;;;15.60;14.23;;;22.60;67.30;;;;;;5059623;28;20223;-83
2021/07/24 03:38:44;;;;;;;16.02;13.65;;;22.50;68.10;;;;;;5056862;28;20214;-84
2021/07/24 03:41:10;;;;;;;16.70;14.45;;;22.60;67.70;;;;;;5059841;28;20200;-84
2021/07/24 03:43:36;;;;;;;15.02;13.65;;;22.70;67.80;;;;;;5054343;28;20262;-85
2021/07/24 03:46:01;;;;;;;16.75;15.32;;;22.90;67.90;;;;;;5039375;28;20213;-85
2021/07/24 03:48:27;;;;;;;16.63;15.02;;;23.00;67.50;;;;;;5040343;28;20178;-83
2021/07/24 03:50:53;;;;;;;15.43;14.05;;;23.00;67.00;;;;;;5048387;28;20218;-84
2021/07/24 03:53:18;;;;;;;14.85;13.63;;;23.00;67.60;;;;;;5021532;28;20176;-84
2021/07/24 03:55:44;;;;;;;17.15;15.43;;;22.70;68.90;;;;;;5043332;28;20192;-84
2021/07/24 03:58:10;;;;;;;15.77;14.38;;;22.60;69.60;;;;;;5051298;28;20204;-84
2021/07/24 04:00:47;;;;;;;17.00;15.43;;;22.60;69.60;;;;;;5045127;28;20187;-84
2021/07/24 04:03:13;;;;;;;20.40;14.77;;;22.50;70.10;;;;;;5061315;28;20820;-84
2021/07/24 04:05:47;;;;;;;16.27;14.80;;;22.40;70.70;;;;;;5034735;28;20232;-85
2021/07/24 04:08:13;;;;;;;17.60;16.02;;;22.40;70.40;;;;;;5039128;28;20754;-84
2021/07/24 04:10:40;;;;;;;16.98;15.30;;;22.30;70.70;;;;;;5021755;28;20200;-84
2021/07/24 04:13:06;;;;;;;16.55;14.85;;;22.20;71.60;;;;;;5039012;28;20261;-84
2021/07/24 04:15:34;;;;;;;17.67;14.75;;;22.10;71.60;;;;;;5039309;28;20532;-85
2021/07/24 04:17:59;;;;;;;19.05;17.13;;;22.20;71.70;;;;;;5041099;28;20197;-84
2021/07/24 04:20:26;;;;;;;21.42;18.38;;;22.00;72.30;;;;;;5058714;28;20708;-85
2021/07/24 04:22:52;;;;;;;19.60;16.75;;;22.00;72.20;;;;;;5042960;28;20587;-84
2021/07/24 04:25:17;;;;;;;18.58;16.90;;;21.90;72.70;;;;;;5039648;28;20208;-84
2021/07/24 04:27:44;;;;;;;16.00;14.32;;;21.90;72.50;;;;;;5029344;28;20242;-85
2021/07/24 04:30:10;;;;;;;17.05;15.25;;;22.00;71.80;;;;;;5046970;28;20201;-84
2021/07/24 04:32:36;;;;;;;17.92;15.98;;;22.00;71.30;;;;;;5057634;28;20176;-85
2021/07/24 04:35:04;;;;;;;17.13;15.52;;;21.80;71.50;;;;;;5054597;28;20216;-84
2021/07/24 04:37:30;;;;;;;16.08;14.65;;;21.70;71.70;;;;;;5059202;28;20196;-84
2021/07/24 04:39:55;;;;;;;17.83;15.95;;;21.60;71.80;;;;;;5046187;28;20207;-84
2021/07/24 04:42:22;;;;;;;17.35;15.60;;;21.60;71.60;;;;;;5038335;28;20283;-84
2021/07/24 04:44:47;;;;;;;16.33;14.93;;;21.70;71.20;;;;;;5054082;28;20226;-84
2021/07/24 04:47:13;;;;;;;16.65;15.15;;;21.70;71.10;;;;;;5061308;28;20216;-84
2021/07/24 04:49:47;;;;;;;17.88;15.55;;;21.70;71.20;;;;;;5057869;28;20180;-84
2021/07/24 04:52:13;;;;;;;17.35;15.43;;;21.90;70.60;;;;;;5057520;28;20259;-84
2021/07/24 04:54:40;;;;;;;15.45;14.07;;;22.00;70.20;;;;;;5057764;28;20184;-84
2021/07/24 04:57:06;;;;;;;16.52;15.07;;;22.20;70.60;;;;;;5056970;28;20196;-85
2021/07/24 04:59:32;;;;;;;16.75;15.30;;;22.30;69.50;;;;;;5046142;28;20841;-84
2021/07/24 05:01:58;;;;;;;17.40;15.80;;;22.50;68.60;;;;;;5023590;28;20242;-85
2021/07/24 05:04:24;;;;;;;22.40;19.50;;;22.60;68.40;;;;;;5041845;28;20243;-85
2021/07/24 05:06:49;;;;;;;21.63;18.23;;;22.60;69.70;;;;;;5046668;28;20197;-85
2021/07/24 05:09:15;;;;;;;21.00;17.73;;;22.60;70.20;;;;;;5044741;28;20188;-84
2021/07/24 05:11:41;;;;;;;17.88;16.20;;;22.60;70.20;;;;;;5053830;28;20177;-85
2021/07/24 05:14:06;;;;;;;18.10;16.13;;;22.60;68.80;;;;;;5049606;28;20202;-84
2021/07/24 05:16:32;;;;;;;17.35;15.82;;;22.70;68.50;;;;;;5065954;28;20239;-83
2021/07/24 05:19:00;;;;;;;18.95;16.95;;;22.40;69.70;;;;;;5053295;28;20204;-83
2021/07/24 05:21:26;;;;;;;16.73;15.02;;;22.10;70.80;;;;;;5057048;28;20184;-83
2021/07/24 05:23:51;;;;;;;17.90;16.15;;;22.10;71.20;;;;;;5061343;28;20252;-82
2021/07/24 05:26:17;;;;;;;16.40;14.90;;;22.20;69.70;;;;;;5068559;28;20230;-83
2021/07/24 05:28:43;;;;;;;17.00;15.45;;;22.30;69.50;;;;;;5061423;28;20181;-83
2021/07/24 05:31:19;;;;;;;17.45;15.82;;;22.20;69.10;;;;;;5049045;28;20571;-83
2021/07/24 05:33:45;;;;;;;17.92;16.05;;;22.20;69.80;;;;;;5057275;28;20172;-83
2021/07/24 05:36:11;;;;;;;18.10;16.38;;;22.00;70.20;;;;;;5053861;28;20195;-83
2021/07/24 05:38:39;;;;;;;17.75;16.15;;;21.90;71.10;;;;;;5058628;28;20184;-86
2021/07/24 05:41:05;;;;;;;17.20;15.48;;;22.20;69.70;;;;;;5057171;28;20204;-86
2021/07/24 05:43:31;;;;;;;17.42;15.85;;;22.30;69.30;;;;;;5043415;28;20212;-86
2021/07/24 05:45:59;;;;;;;17.98;16.17;;;22.40;68.90;;;;;;5043882;28;20304;-86
2021/07/24 05:48:24;;;;;;;18.20;16.33;;;22.50;69.00;;;;;;5061648;28;20177;-86
2021/07/24 05:50:50;;;;;;;17.90;16.23;;;22.50;69.60;;;;;;5029831;28;20188;-84
2021/07/24 05:53:16;;;;;;;17.40;15.77;;;22.50;70.10;;;;;;5046168;28;20185;-87
2021/07/24 05:55:41;;;;;;;20.77;16.45;;;22.20;71.70;;;;;;5043427;28;20195;-88
2021/07/24 05:58:10;;;;;;;18.02;16.45;;;21.90;72.20;;;;;;5050776;28;20271;-83
2021/07/24 06:00:36;;;;;;;20.85;16.98;;;21.70;73.90;;;;;;5042447;28;20581;-86
2021/07/24 06:03:02;;;;;;;18.33;16.52;;;21.50;74.60;;;;;;5060635;28;20184;-87
2021/07/24 06:05:27;;;;;;;18.73;16.63;;;21.30;75.60;;;;;;5051315;28;20245;-87
2021/07/24 06:07:53;;;;;;;18.88;17.15;;;21.10;77.20;;;;;;5058067;28;20223;-86
2021/07/24 06:10:18;;;;;;;18.65;16.80;;;21.10;77.70;;;;;;5048776;28;20202;-83
2021/07/24 06:12:48;;;;;;;18.30;16.60;;;21.10;78.00;;;;;;5059987;28;20182;-82
2021/07/24 06:15:13;;;;;;;18.85;17.08;;;21.10;78.00;;;;;;5067058;28;20184;-83
2021/07/24 06:17:39;;;;;;;19.77;17.92;;;21.00;78.60;;;;;;5053874;28;20696;-84
2021/07/24 06:20:05;;;;;;;19.50;17.33;;;20.90;79.40;;;;;;5059488;28;20192;-84
2021/07/24 06:22:31;;;;;;;20.13;18.15;;;21.00;79.80;;;;;;5057717;28;20184;-82
2021/07/24 06:24:57;;;;;;;19.70;17.95;;;20.90;80.20;;;;;;5047558;28;20216;-83
2021/07/24 06:27:22;;;;;;;19.58;17.70;;;21.00;80.00;;;;;;5051843;28;20211;-83
2021/07/24 06:29:48;;;;;;;19.83;17.85;;;21.00;80.10;;;;;;5047997;28;20224;-82
2021/07/24 06:32:14;;;;;;;19.65;17.75;;;21.10;80.10;;;;;;5055537;28;20173;-83
2021/07/24 06:34:39;;;;;;;19.50;17.77;;;21.20;79.80;;;;;;5055815;28;20180;-84
2021/07/24 06:37:06;;;;;;;19.45;17.55;;;21.30;79.10;;;;;;5058231;28;20688;-82
2021/07/24 06:39:32;;;;;;;20.65;18.60;;;21.50;77.70;;;;;;5060448;28;20183;-83
2021/07/24 06:41:58;;;;;;;20.92;18.70;;;21.70;77.70;;;;;;5050713;28;20251;-84
2021/07/24 06:44:23;;;;;;;18.35;16.77;;;21.70;76.80;;;;;;5059762;28;20246;-84
2021/07/24 06:46:49;;;;;;;20.25;18.17;;;21.90;77.00;;;;;;5038155;28;20241;-83
2021/07/24 06:49:15;;;;;;;20.65;18.60;;;22.10;76.90;;;;;;5062220;28;20181;-84
2021/07/24 06:51:40;;;;;;;20.13;18.23;;;21.90;78.30;;;;;;5061941;28;20263;-82
2021/07/24 06:54:06;;;;;;;20.67;18.60;;;21.80;78.40;;;;;;5055652;28;20649;-82
2021/07/24 06:56:33;;;;;;;20.60;18.70;;;21.60;79.10;;;;;;5046329;28;20207;-81
2021/07/24 06:59:07;;;;;;;20.75;18.75;;;21.80;79.00;;;;;;5040345;28;20177;-83
2021/07/24 07:01:33;;;;;;;20.65;18.95;;;21.90;78.10;;;;;;5014098;28;20234;-84
2021/07/24 07:03:58;;;;;;;18.65;17.15;;;21.90;78.30;;;;;;5055594;28;20208;-83
2021/07/24 07:06:24;;;;;;;19.80;17.85;;;22.10;76.90;;;;;;5062565;28;20196;-82
2021/07/24 07:08:50;;;;;;;20.88;18.95;;;22.30;77.10;;;;;;5059482;28;20184;-82
2021/07/24 07:11:16;;;;;;;20.55;18.45;;;22.30;76.80;;;;;;5061316;28;20184;-83
2021/07/24 07:13:41;;;;;;;19.83;18.02;;;22.40;75.60;;;;;;5059835;28;20195;-85
2021/07/24 07:16:09;;;;;;;20.67;18.63;;;22.40;75.00;;;;;;5059748;28;20184;-85
2021/07/24 07:18:38;;;;;;;19.77;18.02;;;22.60;74.80;;;;;;5043111;28;20798;-82
2021/07/24 07:21:04;;;;;;;19.35;17.48;;;22.80;74.20;;;;;;5042148;28;20176;-83
2021/07/24 07:23:30;;;;;;;18.70;16.88;;;22.90;74.00;;;;;;5058640;28;20616;-84
2021/07/24 07:25:56;;;;;;;20.92;19.02;;;23.10;72.00;;;;;;5059962;28;20204;-84
2021/07/24 07:28:21;;;;;;;21.83;18.50;;;23.10;73.20;;;;;;5054932;28;20215;-85
2021/07/24 07:30:47;;;;;;;19.05;17.35;;;23.10;72.30;;;;;;5033485;28;20564;-84
2021/07/24 07:33:13;;;;;;;19.38;17.33;;;23.10;73.20;;;;;;5055245;28;20192;-84
2021/07/24 07:35:39;;;;;;;19.92;18.15;;;23.30;74.20;;;;;;5056324;28;20176;-84
2021/07/24 07:38:05;;;;;;;18.65;16.90;;;23.30;74.00;;;;;;5056714;28;20218;-85
2021/07/24 07:40:31;;;;;;;20.27;18.30;;;23.20;74.80;;;;;;5028973;28;20181;-85
2021/07/24 07:42:56;;;;;;;22.90;18.48;;;23.30;75.00;;;;;;5025161;28;20279;-88
2021/07/24 07:45:22;;;;;;;19.50;17.60;;;23.30;75.40;;;;;;5064135;28;20208;-88
2021/07/24 07:47:48;;;;;;;22.27;20.20;;;23.30;75.30;;;;;;5057621;28;20196;-87
2021/07/24 07:50:13;;;;;;;23.20;21.25;;;23.40;74.90;;;;;;5055869;28;20184;-89
2021/07/24 07:52:39;;;;;;;22.95;20.67;;;23.40;75.20;;;;;;5092947;28;20207;-90
2021/07/24 07:55:05;;;;;;;21.13;19.17;;;23.40;75.00;;;;;;5053866;28;20227;-88
2021/07/24 07:57:31;;;;;;;20.38;17.58;;;23.40;74.80;;;;;;5036841;28;20205;-88
2021/07/24 07:59:56;;;;;;;20.70;18.83;;;23.60;73.30;;;;;;5019488;28;20235;-87
2021/07/24 08:02:22;;;;;;;19.67;17.52;;;23.50;74.40;;;;;;5054617;28;20172;-88
2021/07/24 08:04:49;;;;;;;19.45;17.52;;;23.60;73.50;;;;;;5056636;28;20258;-88
2021/07/24 08:07:16;;;;;;;19.45;17.73;;;23.90;72.50;;;;;;5054750;28;20212;-89
2021/07/24 08:09:41;;;;;;;18.38;16.52;;;23.80;73.10;;;;;;5058033;28;20183;-88
2021/07/24 08:12:07;;;;;;;19.55;17.67;;;23.70;73.30;;;;;;5050473;28;20192;-89
2021/07/24 08:14:33;;;;;;;20.90;18.75;;;23.80;73.30;;;;;;5054507;28;20771;-89
2021/07/24 08:16:58;;;;;;;19.50;17.70;;;23.80;73.70;;;;;;5047403;28;20200;-89
2021/07/24 08:19:24;;;;;;;18.42;16.85;;;24.00;72.50;;;;;;5050157;28;20197;-87
2021/07/24 08:21:50;;;;;;;17.75;16.17;;;24.10;71.40;;;;;;5043651;28;20184;-89
2021/07/24 08:24:16;;;;;;;19.45;17.15;;;24.30;70.90;;;;;;5056547;28;20249;-87
2021/07/24 08:26:41;;;;;;;19.65;17.55;;;24.30;70.70;;;;;;5056902;28;20200;-88
2021/07/24 08:29:07;;;;;;;19.05;17.35;;;24.50;69.30;;;;;;5057018;28;20242;-87
2021/07/24 08:31:33;;;;;;;19.45;17.67;;;24.60;68.70;;;;;;5055623;28;20191;-87
2021/07/24 08:33:58;;;;;;;19.85;17.95;;;24.90;68.40;;;;;;5057146;28;20705;-88
2021/07/24 08:36:24;;;;;;;18.55;16.73;;;25.10;67.20;;;;;;5054635;28;20290;-89
2021/07/24 08:38:50;;;;;;;19.75;17.63;;;25.20;66.40;;;;;;5043809;28;20172;-87
2021/07/24 08:41:16;;;;;;;19.30;17.63;;;25.20;65.90;;;;;;5039904;28;20758;-87
2021/07/24 08:43:45;;;;;;;18.85;17.13;;;25.40;65.60;;;;;;5050167;28;20196;-88
2021/07/24 08:46:12;;;;;;;19.05;17.45;;;25.30;66.70;;;;;;5051314;28;20185;-87
2021/07/24 08:48:39;;;;;;;20.08;18.27;;;25.40;65.90;;;;;;5050282;28;20192;-87
2021/07/24 08:51:05;;;;;;;17.08;15.63;;;25.30;66.10;;;;;;5036957;28;20181;-87
2021/07/24 08:53:35;;;;;;;19.17;17.48;;;25.50;65.80;;;;;;5044093;28;20619;-87
2021/07/24 08:56:05;;;;;;;21.73;19.30;;;25.70;64.70;;;;;;5053811;28;20181;-87
2021/07/24 08:58:35;;;;;;;19.20;17.50;;;25.70;64.70;;;;;;5043142;28;20204;-87
2021/07/24 09:01:01;;;;;;;19.92;17.83;;;25.80;65.00;;;;;;5055138;28;20521;-88
2021/07/24 09:03:30;;;;;;;18.92;17.17;;;25.60;64.10;;;;;;5056141;28;20181;-86
2021/07/24 09:05:56;;;;;;;18.52;16.95;;;25.90;64.10;;;;;;5056790;28;20203;-87
2021/07/24 09:08:25;;;;;;;20.65;18.40;;;26.20;63.00;;;;;;5062645;28;20200;-86
2021/07/24 09:10:52;;;;;;;19.52;17.80;;;26.30;62.20;;;;;;5043244;28;20176;-88
2021/07/24 09:13:18;;;;;;;18.23;16.67;;;26.10;63.10;;;;;;5047268;28;20168;-86
2021/07/24 09:15:44;;;;;;;16.20;14.82;;;26.10;62.50;;;;;;5068373;28;20255;-86
2021/07/24 09:18:10;;;;;;;17.83;16.27;;;26.00;61.40;;;;;;5067021;28;20200;-88
2021/07/24 09:20:36;;;;;;;19.33;16.23;;;26.10;62.50;;;;;;5049700;28;20184;-86
2021/07/24 09:23:28;;;;;;;18.30;16.23;;;26.10;62.90;;;;;;5051061;28;20187;-89
2021/07/24 09:25:55;;;;;;;18.75;16.45;;;26.30;61.50;;;;;;5060532;28;20192;-87
2021/07/24 09:28:21;;;;;;;17.35;15.70;;;26.70;60.90;;;;;;5048168;28;20201;-87
2021/07/24 09:30:47;;;;;;;16.95;15.43;;;27.10;59.00;;;;;;5046935;28;20211;-86
2021/07/24 09:33:14;;;;;;;15.88;14.57;;;27.40;58.70;;;;;;5022053;28;20207;-88
2021/07/24 09:35:41;;;;;;;15.38;14.07;;;27.60;57.10;;;;;;5062617;28;20176;-87
2021/07/24 09:38:29;;;;;;;15.98;14.48;;;27.60;57.90;;;;;;5060931;28;20319;-86
2021/07/24 09:40:57;;;;;;;14.35;13.05;;;27.80;56.10;;;;;;5070345;28;20176;-87
2021/07/24 09:43:35;;;;;;;15.45;13.88;;;27.70;56.60;;;;;;5077038;28;20176;-89
2021/07/24 09:46:11;;;;;;;13.93;12.68;;;27.90;55.70;;;;;;5060282;28;20440;-89
2021/07/24 09:48:38;;;;;;;13.25;12.02;;;28.10;55.20;;;;;;5045031;28;20192;-87
2021/07/24 09:51:04;;;;;;;14.65;13.10;;;28.00;55.20;;;;;;5043329;28;20196;-90
2021/07/24 09:53:44;;;;;;;13.45;12.10;;;28.00;55.30;;;;;;5043388;28;20189;-89
2021/07/24 09:56:17;;;;;;;13.55;12.45;;;28.00;54.80;;;;;;5044675;28;20177;-91
2021/07/24 09:58:43;;;;;;;14.90;12.75;;;28.10;53.80;;;;;;5048039;28;20183;-90
2021/07/24 10:01:11;;;;;;;15.55;14.05;;;28.20;53.10;;;;;;5041928;28;20223;-90
2021/07/24 10:03:39;;;;;;;14.40;13.05;;;27.90;54.50;;;;;;5054354;28;20188;-91
2021/07/24 10:06:13;;;;;;;19.85;14.45;;;28.00;54.30;;;;;;5064292;28;20238;-91
2021/07/24 10:08:48;;;;;;;19.23;14.38;;;28.10;54.20;;;;;;5065830;28;20165;-90
2021/07/24 10:11:13;;;;;;;14.82;12.82;;;28.30;54.00;;;;;;5050542;28;20238;-90
2021/07/24 10:13:42;;;;;;;14.07;12.68;;;28.40;52.80;;;;;;5041549;28;20228;-90
2021/07/24 10:16:08;;;;;;;13.80;12.40;;;28.40;53.80;;;;;;5043137;28;20185;-89
2021/07/24 10:18:34;;;;;;;14.32;12.98;;;28.40;54.90;;;;;;5044258;28;20702;-90
2021/07/24 10:21:01;;;;;;;14.93;13.40;;;28.40;53.90;;;;;;5061606;28;20266;-90
2021/07/24 10:23:28;;;;;;;14.82;13.35;;;28.50;53.10;;;;;;5062732;28;20632;-92
2021/07/24 10:26:02;;;;;;;14.40;13.00;;;28.30;54.10;;;;;;5061208;28;20226;-91
2021/07/24 10:28:38;;;;;;;14.60;12.65;;;28.60;54.40;;;;;;5023523;28;20177;-86
2021/07/24 10:31:15;;;;;;;14.05;12.70;;;28.80;52.40;;;;;;5039892;28;20184;-87
2021/07/24 10:33:42;;;;;;;14.00;12.80;;;29.00;52.20;;;;;;5041605;28;20215;-92
2021/07/24 10:36:14;;;;;;;13.48;12.32;;;29.20;50.90;;;;;;5041107;28;20216;-91
2021/07/24 10:38:59;;;;;;;13.60;12.50;;;29.40;51.20;;;;;;5041278;28;20177;-91
2021/07/24 10:41:25;;;;;;;13.52;12.20;;;29.30;51.30;;;;;;5041740;28;20185;-92
2021/07/24 10:44:10;;;;;;;12.85;11.75;;;29.20;51.20;;;;;;5043404;28;20560;-91
2021/07/24 10:46:43;;;;;;;12.27;11.25;;;29.40;51.20;;;;;;5035592;28;20193;-90
2021/07/24 10:49:21;;;;;;;13.15;12.07;;;29.50;50.30;;;;;;5039840;28;20169;-91
2021/07/24 10:51:58;;;;;;;12.98;11.70;;;29.30;51.20;;;;;;5071111;28;20187;-90
2021/07/24 10:54:24;;;;;;;12.65;11.52;;;29.50;51.30;;;;;;5081378;28;20190;-91
2021/07/24 10:56:50;;;;;;;11.32;10.38;;;29.30;50.70;;;;;;5074027;28;20211;-91
2021/07/24 10:59:23;;;;;;;10.85;10.05;;;29.30;50.00;;;;;;5041012;28;20584;-90
2021/07/24 11:01:53;;;;;;;10.48;9.57;;;29.30;51.50;;;;;;5050778;28;20707;-90
2021/07/24 11:04:41;;;;;;;10.20;9.13;;;29.00;48.50;;;;;;5061466;28;20204;-91
2021/07/24 11:07:12;;;;;;;11.38;10.43;;;28.90;48.30;;;;;;5060525;28;20191;-90
2021/07/24 11:09:42;;;;;;;10.63;9.55;;;28.90;51.50;;;;;;5042821;28;20196;-91
2021/07/24 11:12:12;;;;;;;11.18;10.13;;;28.90;50.00;;;;;;5043484;28;20184;-90
2021/07/24 11:14:38;;;;;;;9.82;8.85;;;29.00;50.70;;;;;;5060538;28;20243;-91
2021/07/24 11:17:12;;;;;;;10.07;7.72;;;28.90;49.60;;;;;;5044771;28;20241;-88
2021/07/24 11:19:42;;;;;;;8.82;7.88;;;28.70;48.00;;;;;;5023626;28;20177;-87
2021/07/24 11:22:17;;;;;;;7.63;7.03;;;28.80;49.20;;;;;;5008420;28;20185;-89
2021/07/24 11:24:52;;;;;;;7.97;7.13;;;28.70;48.60;;;;;;5043604;28;20223;-89
2021/07/24 11:27:26;;;;;;;8.05;7.38;;;28.80;47.30;;;;;;5044244;28;20205;-88
2021/07/24 11:29:52;;;;;;;7.70;7.00;;;29.00;49.10;;;;;;5052185;28;20185;-87
2021/07/24 11:32:25;;;;;;;6.85;6.25;;;29.40;47.50;;;;;;5067773;28;20188;-90
2021/07/24 11:34:59;;;;;;;7.72;7.03;;;29.70;45.40;;;;;;5056042;28;20173;-89
2021/07/24 11:37:38;;;;;;;7.63;6.90;;;29.40;45.30;;;;;;5037437;28;20193;-88
2021/07/24 11:40:06;;;;;;;6.65;6.05;;;29.40;46.70;;;;;;5059894;28;20180;-90
2021/07/24 11:42:32;;;;;;;6.40;5.80;;;29.20;46.30;;;;;;5053753;28;20175;-86
2021/07/24 11:44:57;;;;;;;6.82;6.20;;;29.20;46.90;;;;;;5054937;28;20212;-87
2021/07/24 11:47:23;;;;;;;6.70;6.10;;;29.10;47.30;;;;;;5045345;28;20204;-86
2021/07/24 11:49:49;;;;;;;6.80;6.10;;;29.20;47.10;;;;;;5055019;28;20195;-87
2021/07/24 11:52:21;;;;;;;10.38;7.70;;;29.50;49.60;;;;;;5069449;28;20184;-90
2021/07/24 11:54:50;;;;;;;8.52;7.75;;;30.20;48.40;;;;;;5069510;28;20168;-90
2021/07/24 11:57:27;;;;;;;8.18;6.47;;;30.60;46.60;;;;;;5067407;28;20205;-89
2021/07/24 11:59:53;;;;;;;7.07;6.35;;;30.60;45.10;;;;;;5066207;28;20179;-89
2021/07/24 12:02:19;;;;;;;13.07;7.75;;;30.50;46.70;;;;;;5066642;28;20196;-91
2021/07/24 12:04:49;;;;;;;8.13;7.32;;;30.80;46.30;;;;;;5057634;28;20245;-90
2021/07/24 12:07:17;;;;;;;10.23;7.22;;;30.80;44.30;;;;;;5067288;28;20192;-90
2021/07/24 12:09:43;;;;;;;7.57;6.85;;;30.90;46.90;;;;;;5067086;28;20194;-89
2021/07/24 12:12:09;;;;;;;7.20;6.57;;;30.70;45.50;;;;;;5044879;28;20226;-89
2021/07/24 12:14:35;;;;;;;9.73;7.03;;;31.00;46.30;;;;;;5059141;28;20185;-89
2021/07/24 12:17:09;;;;;;;10.52;7.38;;;30.90;46.40;;;;;;5058921;28;20184;-90
2021/07/24 12:19:44;;;;;;;9.00;8.18;;;31.20;46.20;;;;;;5050710;28;20181;-89
2021/07/24 12:22:13;;;;;;;9.75;7.50;;;31.50;44.60;;;;;;5058117;28;20281;-86
2021/07/24 12:24:40;;;;;;;8.07;7.30;;;32.00;45.50;;;;;;5057407;28;20226;-87
2021/07/24 12:27:08;;;;;;;8.15;7.35;;;31.70;43.90;;;;;;5032058;28;20208;-87
2021/07/24 12:30:00;;;;;;;8.57;7.38;;;31.40;44.30;;;;;;5034482;28;20196;-85
2021/07/24 12:32:41;;;;;;;7.22;6.63;;;30.80;45.00;;;;;;5055957;28;20184;-84
2021/07/24 12:35:15;;;;;;;7.35;6.75;;;30.40;46.40;;;;;;5055441;28;20180;-84